Time;durP1;ratioP1;P1;durP2;ratioP2;P2;SDS_P1;SDS_P2;PMS_P1;PMS_P2;Temp;Humidity;BMP_temperature;BMP_pressure;BME280_temperature;BME280_humidity;BME280_pressure;Samples;Min_cycle;Max_cycle;Signal;HPM_P1;HPM_P2
2021/03/28 00:02:20;;;;;;;4.38;1.80;;;5.20;92.30;;;;;;5082429;28;20223;-73
2021/03/28 00:04:51;;;;;;;7.50;2.10;;;5.10;92.40;;;;;;5083269;28;20207;-73
2021/03/28 00:07:20;;;;;;;4.38;1.73;;;5.10;92.70;;;;;;5083051;28;20222;-73
2021/03/28 00:09:54;;;;;;;2.97;1.92;;;5.10;92.80;;;;;;5091319;28;20503;-72
2021/03/28 00:12:30;;;;;;;3.92;2.15;;;5.00;92.80;;;;;;5103073;28;20464;-73
2021/03/28 00:15:01;;;;;;;4.22;1.85;;;4.90;93.20;;;;;;5103252;28;20206;-73
2021/03/28 00:17:42;;;;;;;2.75;1.80;;;4.70;93.60;;;;;;5103175;28;20539;-73
2021/03/28 00:20:23;;;;;;;3.85;1.70;;;4.60;93.60;;;;;;5102694;28;20717;-73
2021/03/28 00:22:59;;;;;;;3.90;2.05;;;4.60;93.50;;;;;;5102600;28;20628;-73
2021/03/28 00:25:34;;;;;;;1.95;1.70;;;4.60;93.80;;;;;;5103606;28;20198;-73
2021/03/28 00:28:04;;;;;;;2.95;1.90;;;4.50;93.60;;;;;;5103328;28;20202;-73
2021/03/28 00:30:33;;;;;;;2.28;1.95;;;4.50;93.70;;;;;;5102838;28;20234;-73
2021/03/28 00:33:04;;;;;;;4.82;2.05;;;4.50;93.70;;;;;;5103201;28;20209;-72
2021/03/28 00:35:35;;;;;;;3.70;2.45;;;4.50;93.60;;;;;;5103273;28;20199;-73
2021/03/28 00:38:10;;;;;;;7.18;2.15;;;4.50;93.60;;;;;;5102558;28;20202;-73
2021/03/28 00:40:36;;;;;;;4.80;2.38;;;4.50;93.50;;;;;;5102244;28;20607;-73
2021/03/28 00:43:14;;;;;;;4.97;2.28;;;4.50;93.50;;;;;;5102531;28;20231;-73
2021/03/28 00:45:53;;;;;;;5.70;3.00;;;4.50;93.60;;;;;;5102837;28;20211;-74
2021/03/28 00:48:22;;;;;;;4.40;2.10;;;4.50;93.60;;;;;;5101980;28;20203;-74
2021/03/28 00:50:54;;;;;;;5.20;2.38;;;4.60;93.60;;;;;;5102516;28;20219;-73
2021/03/28 00:53:38;;;;;;;5.13;2.10;;;4.50;93.70;;;;;;5102599;28;20209;-73
2021/03/28 00:56:10;;;;;;;2.78;1.77;;;4.50;93.80;;;;;;5102024;28;20202;-73
2021/03/28 00:58:55;;;;;;;3.97;2.10;;;4.40;93.90;;;;;;5101305;28;20708;-73
2021/03/28 01:01:27;;;;;;;4.53;2.10;;;4.40;93.90;;;;;;5102169;28;20223;-73
2021/03/28 01:04:38;;;;;;;3.90;2.50;;;4.40;94.00;;;;;;5103299;28;20207;-73
2021/03/28 01:07:21;;;;;;;6.43;2.15;;;4.30;94.10;;;;;;5020788;28;20692;-73
2021/03/28 01:10:21;;;;;;;2.60;2.00;;;4.30;94.00;;;;;;5020083;28;20207;-73
2021/03/28 01:13:10;;;;;;;7.07;2.47;;;4.30;94.10;;;;;;5092011;28;20199;-73
2021/03/28 01:16:16;;;;;;;3.15;2.10;;;4.40;94.20;;;;;;5108245;28;20210;-73
2021/03/28 01:18:59;;;;;;;5.35;2.83;;;4.30;94.10;;;;;;5072943;28;20206;-73
2021/03/28 01:21:39;;;;;;;5.20;2.53;;;4.30;94.10;;;;;;5103161;28;20230;-73
2021/03/28 01:24:18;;;;;;;4.97;2.40;;;4.30;94.10;;;;;;5103137;28;20558;-73
2021/03/28 01:27:05;;;;;;;4.22;2.35;;;4.30;94.20;;;;;;5103368;28;20214;-73
2021/03/28 01:29:39;;;;;;;3.10;2.35;;;4.30;94.20;;;;;;5102935;28;20211;-73
2021/03/28 01:32:08;;;;;;;2.60;1.73;;;4.30;94.40;;;;;;5103176;28;20248;-73
2021/03/28 01:34:43;;;;;;;4.18;2.10;;;4.30;94.50;;;;;;5103300;28;20216;-73
2021/03/28 01:37:15;;;;;;;2.80;2.20;;;4.20;94.60;;;;;;5102962;28;20580;-73
2021/03/28 01:39:50;;;;;;;4.32;2.13;;;4.10;94.80;;;;;;5102574;28;20203;-73
2021/03/28 01:45:02;;;;;;;8.43;2.35;;;4.00;94.90;;;;;;5209968;22;20232;-69
2021/03/28 01:47:47;;;;;;;5.35;2.33;;;3.80;95.20;;;;;;5042070;28;20555;-69
2021/03/28 01:50:32;;;;;;;2.72;1.73;;;3.80;95.30;;;;;;5048436;28;20211;-69
2021/03/28 01:53:09;;;;;;;2.45;1.90;;;3.70;95.30;;;;;;5048604;28;20220;-70
2021/03/28 01:55:45;;;;;;;5.85;2.35;;;3.60;95.40;;;;;;5049062;28;20197;-70
2021/03/28 01:58:29;;;;;;;3.47;2.42;;;3.60;95.40;;;;;;5048787;28;20200;-70
2021/03/28 02:01:10;;;;;;;6.35;2.20;;;3.60;95.50;;;;;;5048332;28;20221;-71
2021/03/28 02:03:52;;;;;;;3.63;2.67;;;3.60;95.80;;;;;;5049135;28;20197;-70
2021/03/28 02:06:34;;;;;;;3.17;2.00;;;3.60;95.80;;;;;;5048936;28;20683;-70
2021/03/28 02:09:07;;;;;;;3.13;1.80;;;3.60;96.00;;;;;;5051893;28;20212;-71
2021/03/28 02:11:58;;;;;;;3.67;2.15;;;3.50;96.00;;;;;;5052837;28;20225;-70
2021/03/28 02:14:46;;;;;;;5.88;3.00;;;3.50;96.10;;;;;;5046263;28;20669;-72
2021/03/28 02:17:26;;;;;;;6.20;2.47;;;3.60;96.10;;;;;;5032876;28;20343;-72
2021/03/28 02:20:01;;;;;;;5.80;2.20;;;3.60;96.10;;;;;;5032202;28;20263;-71
2021/03/28 02:22:32;;;;;;;4.95;2.65;;;3.60;96.00;;;;;;5032842;28;20228;-70
2021/03/28 02:25:10;;;;;;;3.35;2.60;;;3.50;96.10;;;;;;5032512;28;20208;-71
2021/03/28 02:27:43;;;;;;;3.58;2.50;;;3.40;96.10;;;;;;5033039;28;20235;-71
2021/03/28 02:30:19;;;;;;;4.05;2.00;;;3.40;96.20;;;;;;5031876;28;20218;-70
2021/03/28 02:32:57;;;;;;;7.38;2.22;;;3.40;96.30;;;;;;5032582;28;20193;-70
2021/03/28 02:36:00;;;;;;;5.65;2.70;;;3.30;96.60;;;;;;5032457;28;20289;-70
2021/03/28 02:38:46;;;;;;;4.05;2.60;;;3.30;96.60;;;;;;4970961;28;20203;-70
2021/03/28 02:41:19;;;;;;;3.55;1.75;;;3.30;96.60;;;;;;5024613;28;20236;-70
2021/03/28 02:43:47;;;;;;;3.13;2.33;;;3.30;96.80;;;;;;5032292;28;20586;-70
2021/03/28 02:46:37;;;;;;;2.60;2.28;;;3.40;96.90;;;;;;5032278;28;20209;-70
2021/03/28 02:49:35;;;;;;;3.30;2.35;;;3.30;96.80;;;;;;5031795;28;20220;-70
2021/03/28 02:52:16;;;;;;;4.55;2.40;;;3.40;96.80;;;;;;5031840;28;20217;-70
2021/03/28 02:55:11;;;;;;;6.50;3.20;;;3.40;96.90;;;;;;5032563;28;20276;-70
2021/03/28 02:57:54;;;;;;;3.80;2.63;;;3.50;96.90;;;;;;5032249;28;20209;-70
2021/03/28 03:00:30;;;;;;;4.97;2.63;;;3.50;96.80;;;;;;5031650;28;20563;-71
2021/03/28 03:03:27;;;;;;;5.20;2.30;;;3.50;96.80;;;;;;5031595;28;20213;-71
2021/03/28 03:06:20;;;;;;;4.25;2.30;;;3.50;97.00;;;;;;5032006;28;20202;-70
2021/03/28 03:08:58;;;;;;;2.70;2.30;;;3.50;97.00;;;;;;5031530;28;20629;-70
2021/03/28 03:11:42;;;;;;;4.85;2.35;;;3.50;97.00;;;;;;5032065;28;20794;-70
2021/03/28 03:14:30;;;;;;;4.50;2.38;;;3.40;97.00;;;;;;5031899;28;20202;-70
2021/03/28 03:17:39;;;;;;;3.15;2.28;;;3.40;97.00;;;;;;5032188;28;20626;-70
2021/03/28 03:20:44;;;;;;;4.22;1.70;;;3.40;97.00;;;;;;5029812;28;20210;-70
2021/03/28 03:23:46;;;;;;;3.70;2.30;;;3.40;97.10;;;;;;5031668;28;20229;-70
2021/03/28 03:26:37;;;;;;;4.13;2.17;;;3.40;97.10;;;;;;5031583;28;20296;-71
2021/03/28 03:29:36;;;;;;;4.95;2.20;;;3.40;97.20;;;;;;4997646;28;20198;-69
2021/03/28 03:32:18;;;;;;;3.75;1.95;;;3.40;97.10;;;;;;5031214;28;20218;-70
2021/03/28 03:35:12;;;;;;;5.30;2.30;;;3.40;97.00;;;;;;5031649;28;20201;-70
2021/03/28 03:38:26;;;;;;;4.35;2.30;;;3.40;96.90;;;;;;5031423;28;20206;-70
2021/03/28 03:41:12;;;;;;;7.25;1.95;;;3.40;97.00;;;;;;5015900;28;20254;-71
2021/03/28 03:44:14;;;;;;;5.22;2.47;;;3.50;97.10;;;;;;5031122;28;20206;-70
2021/03/28 03:47:04;;;;;;;4.10;2.78;;;3.50;97.20;;;;;;5031429;28;20209;-70
2021/03/28 03:49:49;;;;;;;2.92;2.25;;;3.50;97.30;;;;;;5030553;28;20235;-70
2021/03/28 03:52:36;;;;;;;5.28;2.05;;;3.40;97.10;;;;;;5031315;28;20638;-69
2021/03/28 03:55:07;;;;;;;5.75;2.50;;;3.40;97.20;;;;;;5030740;28;20206;-70
2021/03/28 03:57:40;;;;;;;4.35;2.38;;;3.40;97.20;;;;;;5031312;28;20206;-70
2021/03/28 04:00:20;;;;;;;3.67;2.40;;;3.40;97.30;;;;;;5030270;28;20243;-70
2021/03/28 04:02:54;;;;;;;6.40;3.03;;;3.40;97.20;;;;;;5031337;28;20225;-70
2021/03/28 04:05:41;;;;;;;6.45;2.30;;;3.40;97.20;;;;;;5030903;28;20221;-71
2021/03/28 04:08:33;;;;;;;3.50;2.60;;;3.20;97.50;;;;;;5030794;28;20198;-71
2021/03/28 04:11:09;;;;;;;5.68;2.15;;;3.10;97.70;;;;;;5030421;28;20225;-71
2021/03/28 04:14:05;;;;;;;3.38;1.92;;;3.10;97.80;;;;;;5030774;28;20205;-71
2021/03/28 04:16:44;;;;;;;3.20;2.30;;;3.00;97.90;;;;;;5028806;28;20208;-70
2021/03/28 04:19:38;;;;;;;3.80;2.40;;;3.00;98.20;;;;;;5029986;28;20201;-69
2021/03/28 04:22:22;;;;;;;5.25;2.60;;;2.90;98.50;;;;;;5030312;28;20217;-71
2021/03/28 04:24:57;;;;;;;12.52;2.83;;;2.80;98.50;;;;;;5030418;28;20209;-71
2021/03/28 04:27:41;;;;;;;4.90;2.20;;;2.80;98.70;;;;;;5030507;28;20197;-69
2021/03/28 04:30:29;;;;;;;6.20;2.35;;;2.80;98.70;;;;;;5029880;28;20217;-70
2021/03/28 04:33:05;;;;;;;2.47;2.15;;;2.70;98.70;;;;;;5030389;28;20824;-70
2021/03/28 04:35:49;;;;;;;3.08;1.85;;;2.70;99.00;;;;;;5030617;28;20206;-70
2021/03/28 04:38:37;;;;;;;3.92;1.77;;;2.60;99.10;;;;;;5029965;28;20567;-70
2021/03/28 04:41:27;;;;;;;3.88;2.25;;;2.50;99.20;;;;;;5030045;28;20225;-70
2021/03/28 04:44:33;;;;;;;7.13;2.45;;;2.40;99.40;;;;;;5029723;28;20205;-70
2021/03/28 04:47:28;;;;;;;3.40;2.13;;;2.40;99.70;;;;;;5004539;28;20617;-70
2021/03/28 04:50:11;;;;;;;3.35;1.98;;;2.30;99.90;;;;;;5027560;28;20931;-71
2021/03/28 04:53:08;;;;;;;2.95;2.03;;;2.10;99.90;;;;;;5030057;28;20201;-70
2021/03/28 04:56:00;;;;;;;4.93;2.22;;;2.00;99.90;;;;;;5029933;28;20274;-70
2021/03/28 04:58:38;;;;;;;6.05;1.90;;;2.00;99.90;;;;;;5029633;28;20197;-69
2021/03/28 05:01:45;;;;;;;3.28;1.80;;;2.00;99.90;;;;;;5029459;28;20217;-69
2021/03/28 05:04:37;;;;;;;3.28;1.65;;;1.90;99.90;;;;;;4968527;28;20210;-70
2021/03/28 05:07:48;;;;;;;3.22;2.20;;;1.90;99.90;;;;;;5029485;28;20197;-69
2021/03/28 05:10:47;;;;;;;4.07;2.00;;;2.00;99.90;;;;;;5029185;28;20248;-69
2021/03/28 05:13:51;;;;;;;4.47;1.90;;;1.90;99.90;;;;;;5029403;28;20241;-68
2021/03/28 05:16:51;;;;;;;3.10;1.90;;;1.90;99.90;;;;;;5029562;28;20212;-70
2021/03/28 05:19:57;;;;;;;5.93;2.53;;;1.90;99.90;;;;;;5029061;28;20211;-70
2021/03/28 05:23:13;;;;;;;3.75;2.47;;;1.90;99.90;;;;;;5029507;28;20268;-70
2021/03/28 05:25:57;;;;;;;6.30;2.58;;;1.90;99.90;;;;;;4968188;28;20215;-69
2021/03/28 05:28:49;;;;;;;3.97;2.00;;;2.00;99.90;;;;;;5021576;28;20247;-70
2021/03/28 05:31:51;;;;;;;10.50;2.20;;;2.10;99.90;;;;;;5029241;28;20660;-69
2021/03/28 05:34:51;;;;;;;4.30;2.50;;;2.20;99.90;;;;;;5029575;28;20216;-69
2021/03/28 05:37:54;;;;;;;6.15;2.20;;;2.30;99.90;;;;;;5029430;28;20209;-70
2021/03/28 05:40:41;;;;;;;2.33;1.65;;;2.30;99.90;;;;;;5028852;28;20209;-70
2021/03/28 05:43:52;;;;;;;3.90;2.25;;;2.50;99.90;;;;;;5019605;28;20225;-68
2021/03/28 05:46:45;;;;;;;5.72;2.13;;;2.60;99.90;;;;;;5014152;28;20206;-69
2021/03/28 05:49:27;;;;;;;4.80;2.35;;;2.70;99.90;;;;;;5028065;28;20252;-70
2021/03/28 05:52:13;;;;;;;5.75;2.60;;;2.70;99.90;;;;;;5029252;28;20221;-70
2021/03/28 05:55:22;;;;;;;3.92;1.58;;;2.80;99.90;;;;;;5029245;28;20197;-70
2021/03/28 05:58:14;;;;;;;4.80;2.17;;;2.90;99.90;;;;;;5018753;28;20574;-71
2021/03/28 06:01:19;;;;;;;2.97;2.00;;;3.00;99.90;;;;;;5043607;28;20600;-70
2021/03/28 06:04:19;;;;;;;7.50;2.15;;;3.00;99.90;;;;;;5048810;28;20230;-70
2021/03/28 06:07:40;;;;;;;3.72;1.75;;;3.00;99.90;;;;;;5048692;28;20670;-70
2021/03/28 06:10:43;;;;;;;2.70;1.80;;;3.00;99.90;;;;;;5048155;28;21040;-71
2021/03/28 06:13:30;;;;;;;3.35;1.90;;;3.00;99.90;;;;;;5048488;28;20209;-70
2021/03/28 06:16:17;;;;;;;6.47;2.20;;;3.00;99.90;;;;;;5048885;28;20208;-71
2021/03/28 06:19:14;;;;;;;3.67;2.15;;;3.00;99.90;;;;;;5048144;28;20667;-70
2021/03/28 06:22:06;;;;;;;6.10;3.35;;;3.00;99.90;;;;;;4998534;28;20314;-70
2021/03/28 06:25:00;;;;;;;4.57;2.30;;;3.00;99.90;;;;;;5048615;28;20583;-70
2021/03/28 06:28:07;;;;;;;3.00;2.08;;;3.00;99.90;;;;;;5048805;28;20201;-70
2021/03/28 06:31:16;;;;;;;2.90;2.15;;;3.10;99.90;;;;;;5047922;28;20232;-70
2021/03/28 06:34:20;;;;;;;3.13;1.98;;;3.10;99.90;;;;;;5048519;28;20671;-69
2021/03/28 06:37:34;;;;;;;6.60;2.58;;;3.10;99.90;;;;;;5048255;28;20699;-69
2021/03/28 06:40:09;;;;;;;5.20;2.25;;;3.20;99.90;;;;;;5043857;28;20220;-69
2021/03/28 06:43:11;;;;;;;4.78;1.95;;;3.30;99.90;;;;;;5048445;28;20228;-68
2021/03/28 06:45:51;;;;;;;3.33;1.95;;;3.40;99.90;;;;;;5042699;28;20246;-70
2021/03/28 06:48:50;;;;;;;3.45;1.88;;;3.60;99.90;;;;;;5041370;28;20197;-69
2021/03/28 06:51:35;;;;;;;6.38;2.55;;;3.90;99.90;;;;;;5028663;28;20236;-69
2021/03/28 06:54:45;;;;;;;5.70;2.22;;;4.20;99.90;;;;;;5028718;28;20557;-69
2021/03/28 06:57:44;;;;;;;3.13;1.80;;;4.50;99.20;;;;;;5051799;28;20671;-69
2021/03/28 07:00:35;;;;;;;5.63;2.30;;;4.70;99.10;;;;;;5034262;28;20197;-70
2021/03/28 07:03:43;;;;;;;3.42;2.28;;;4.80;98.60;;;;;;5051340;28;20221;-69
2021/03/28 07:06:20;;;;;;;5.45;2.90;;;5.00;98.20;;;;;;5038795;28;20805;-70
2021/03/28 07:09:13;;;;;;;4.15;2.10;;;5.20;97.90;;;;;;5030974;28;20729;-70
2021/03/28 07:11:59;;;;;;;5.05;2.42;;;5.30;97.90;;;;;;5031819;28;20225;-70
2021/03/28 07:15:06;;;;;;;4.10;2.30;;;5.50;97.30;;;;;;5031377;28;20209;-69
2021/03/28 07:18:08;;;;;;;3.35;2.25;;;5.70;96.90;;;;;;5031605;28;20201;-69
2021/03/28 07:20:53;;;;;;;4.03;2.75;;;5.90;96.70;;;;;;5030916;28;20228;-70
2021/03/28 07:23:54;;;;;;;4.28;2.08;;;6.20;96.40;;;;;;5019120;28;20229;-70
2021/03/28 07:26:50;;;;;;;4.15;2.63;;;6.30;95.70;;;;;;5031778;28;20212;-70
2021/03/28 07:30:02;;;;;;;7.95;2.25;;;6.40;95.80;;;;;;5031767;28;20588;-70
2021/03/28 07:32:52;;;;;;;5.00;2.50;;;6.60;95.80;;;;;;5050981;28;20201;-71
2021/03/28 07:35:52;;;;;;;4.65;2.33;;;7.00;95.70;;;;;;5051386;28;20204;-69
2021/03/28 07:38:45;;;;;;;4.30;2.00;;;7.40;95.00;;;;;;5051233;28;20205;-69
2021/03/28 07:41:40;;;;;;;5.15;2.80;;;7.80;94.40;;;;;;5051585;28;20781;-70
2021/03/28 07:57:49;;;;;;;3.40;2.03;;;9.40;92.30;;;;;;5071079;28;20205;-74
2021/03/28 08:00:49;;;;;;;3.38;2.05;;;9.90;91.50;;;;;;5070173;28;20270;-73
2021/03/28 08:03:44;;;;;;;6.00;2.70;;;10.30;90.90;;;;;;5070658;28;20243;-73
2021/03/28 08:06:47;;;;;;;3.65;2.28;;;10.60;89.80;;;;;;5044237;28;20205;-73
2021/03/28 08:09:40;;;;;;;5.68;2.20;;;10.50;90.30;;;;;;5066904;28;20270;-73
2021/03/28 08:12:24;;;;;;;7.20;2.67;;;10.60;89.70;;;;;;5036741;28;20236;-74
2021/03/28 08:15:24;;;;;;;4.90;2.35;;;10.50;90.50;;;;;;5067286;28;20201;-74
2021/03/28 08:17:55;;;;;;;4.40;2.22;;;10.80;90.20;;;;;;5067289;28;20208;-73
2021/03/28 08:20:43;;;;;;;4.43;2.40;;;11.10;90.00;;;;;;5067099;28;20217;-73
2021/03/28 08:23:50;;;;;;;4.22;2.25;;;11.20;89.30;;;;;;5067225;28;20224;-73
2021/03/28 08:26:33;;;;;;;4.35;2.20;;;11.20;89.60;;;;;;5067399;28;20207;-73
2021/03/28 08:29:22;;;;;;;4.88;2.50;;;11.40;88.60;;;;;;5066475;28;20209;-73
2021/03/28 08:31:56;;;;;;;3.10;1.92;;;11.40;86.50;;;;;;5067010;28;20223;-73
2021/03/28 08:34:44;;;;;;;4.50;2.30;;;11.40;86.40;;;;;;5066788;28;20200;-73
2021/03/28 08:38:07;;;;;;;4.72;2.10;;;12.00;87.90;;;;;;5067156;28;20226;-73
2021/03/28 08:41:09;;;;;;;7.50;2.10;;;13.60;83.90;;;;;;5036021;28;20227;-73
2021/03/28 08:44:07;;;;;;;6.23;2.27;;;15.40;79.90;;;;;;5066955;28;20482;-73
2021/03/28 08:47:03;;;;;;;7.63;2.40;;;16.80;75.50;;;;;;5067279;28;20470;-73
2021/03/28 08:49:35;;;;;;;2.90;1.70;;;17.80;72.80;;;;;;5066444;28;20462;-73
2021/03/28 08:52:42;;;;;;;3.10;2.00;;;18.60;71.60;;;;;;5066483;28;20927;-73
2021/03/28 08:55:28;;;;;;;3.97;1.97;;;18.60;67.10;;;;;;5038980;28;20988;-73
2021/03/28 08:58:02;;;;;;;9.60;2.40;;;17.30;69.40;;;;;;5066128;28;20455;-73
2021/03/28 09:00:43;;;;;;;5.77;2.40;;;17.10;69.60;;;;;;5066629;28;20855;-73
2021/03/28 09:03:24;;;;;;;4.87;2.13;;;17.00;71.10;;;;;;5066849;28;20486;-74
2021/03/28 09:05:52;;;;;;;3.50;1.67;;;17.00;68.70;;;;;;5066069;28;20454;-72
2021/03/28 09:08:32;;;;;;;3.03;2.10;;;17.30;68.20;;;;;;5065768;28;20833;-72
2021/03/28 09:11:47;;;;;;;5.23;2.30;;;18.00;65.90;;;;;;5066047;28;20517;-73
2021/03/28 09:14:25;;;;;;;2.27;1.90;;;18.40;64.60;;;;;;4984557;28;20462;-72
2021/03/28 09:16:59;;;;;;;4.13;2.00;;;18.60;64.50;;;;;;4983425;28;20493;-72
2021/03/28 09:20:06;;;;;;;3.97;2.27;;;18.50;63.30;;;;;;5030506;28;20461;-74
2021/03/28 09:22:46;;;;;;;5.43;2.20;;;18.40;64.80;;;;;;5038680;28;20478;-74
2021/03/28 09:25:22;;;;;;;5.90;1.87;;;19.10;64.10;;;;;;5066402;28;20462;-73
2021/03/28 09:27:56;;;;;;;3.33;1.90;;;19.20;60.00;;;;;;5065969;28;20454;-73
2021/03/28 09:30:30;;;;;;;5.33;2.00;;;20.10;60.00;;;;;;5065630;28;20477;-73
2021/03/28 09:33:15;;;;;;;3.73;1.70;;;20.40;59.10;;;;;;5066486;28;20532;-73
2021/03/28 09:36:25;;;;;;;2.90;2.00;;;19.50;60.20;;;;;;5066639;28;20451;-73
2021/03/28 09:39:31;;;;;;;2.57;2.10;;;19.00;61.00;;;;;;5065487;28;20566;-73
2021/03/28 09:42:40;;;;;;;5.00;1.90;;;18.80;58.20;;;;;;5065744;28;20486;-74
2021/03/28 09:45:38;;;;;;;3.10;1.40;;;19.50;57.00;;;;;;5006810;28;20458;-73
2021/03/28 09:48:24;;;;;;;2.10;1.60;;;20.40;56.50;;;;;;5073667;28;20502;-73
2021/03/28 09:51:02;;;;;;;3.67;2.07;;;19.90;54.00;;;;;;5071819;28;20532;-73
2021/03/28 09:53:41;;;;;;;4.60;1.93;;;18.70;57.50;;;;;;5086566;28;20457;-72
2021/03/28 09:56:43;;;;;;;4.03;1.37;;;18.90;56.20;;;;;;5085196;28;20908;-73
2021/03/28 09:59:32;;;;;;;5.10;2.13;;;18.10;58.60;;;;;;5085023;28;20472;-72
2021/03/28 10:02:20;;;;;;;3.00;1.60;;;18.20;57.60;;;;;;5085717;28;20588;-71
2021/03/28 10:05:07;;;;;;;2.60;1.80;;;17.60;57.80;;;;;;5085605;28;20983;-72
2021/03/28 10:07:40;;;;;;;3.00;2.17;;;17.40;57.60;;;;;;5081979;28;20515;-73
2021/03/28 10:10:17;;;;;;;3.40;2.07;;;18.10;56.90;;;;;;5084736;28;20454;-72
2021/03/28 10:12:49;;;;;;;3.60;1.90;;;19.00;56.80;;;;;;5085784;28;20464;-71
2021/03/28 10:15:19;;;;;;;2.80;1.93;;;19.50;57.70;;;;;;5085752;28;20465;-72
2021/03/28 10:17:51;;;;;;;5.77;2.33;;;19.40;56.30;;;;;;5085795;28;20457;-72
2021/03/28 10:20:42;;;;;;;3.50;2.20;;;19.50;57.40;;;;;;5083299;28;20465;-71
2021/03/28 10:23:22;;;;;;;4.63;1.80;;;19.80;58.00;;;;;;5075157;28;20482;-72
2021/03/28 10:26:05;;;;;;;3.97;2.07;;;20.20;57.30;;;;;;5071516;28;20507;-72
2021/03/28 10:28:55;;;;;;;3.20;2.03;;;20.20;55.90;;;;;;5068856;28;20469;-72
2021/03/28 10:31:31;;;;;;;2.87;2.07;;;19.00;55.90;;;;;;5069833;28;20482;-72
2021/03/28 10:34:35;;;;;;;2.97;1.90;;;18.20;57.30;;;;;;5069498;28;20472;-72
2021/03/28 10:37:20;;;;;;;4.30;1.73;;;18.00;57.50;;;;;;5057561;28;20573;-72
2021/03/28 10:40:18;;;;;;;2.80;2.30;;;19.60;57.10;;;;;;5071302;28;20450;-72
2021/03/28 10:42:50;;;;;;;2.30;1.90;;;20.40;54.60;;;;;;5070037;28;20482;-71
2021/03/28 10:45:26;;;;;;;2.00;1.60;;;20.80;55.40;;;;;;5069737;28;20446;-72
2021/03/28 10:48:29;;;;;;;6.17;1.90;;;21.80;54.40;;;;;;5068643;28;20462;-72
2021/03/28 10:51:31;;;;;;;2.57;2.03;;;22.70;54.10;;;;;;4995562;28;20481;-72
2021/03/28 10:54:49;;;;;;;3.57;2.20;;;22.80;53.20;;;;;;5070307;28;20519;-71
2021/03/28 10:57:57;;;;;;;4.77;2.07;;;23.30;52.10;;;;;;4988064;28;20461;-74
2021/03/28 11:01:10;;;;;;;2.63;1.87;;;22.70;51.60;;;;;;4984289;28;20462;-72
2021/03/28 11:04:19;;;;;;;6.60;1.80;;;22.10;54.20;;;;;;5066218;28;20482;-72
2021/03/28 11:07:04;;;;;;;4.30;2.30;;;21.90;52.40;;;;;;5066767;28;20476;-73
2021/03/28 11:09:54;;;;;;;4.30;2.20;;;20.60;53.30;;;;;;5072980;28;21018;-73
2021/03/28 11:12:44;;;;;;;3.93;2.60;;;19.80;54.80;;;;;;5070190;28;20556;-72
2021/03/28 11:15:31;;;;;;;4.20;2.27;;;19.20;56.00;;;;;;5069450;28;20466;-73
2021/03/28 11:18:24;;;;;;;4.63;1.90;;;19.10;57.00;;;;;;5070376;28;20477;-72
2021/03/28 11:20:55;;;;;;;3.77;2.50;;;20.30;55.50;;;;;;5070221;28;20859;-73
2021/03/28 11:23:49;;;;;;;3.17;2.07;;;21.50;54.30;;;;;;5070974;28;20482;-73
2021/03/28 11:26:57;;;;;;;6.07;2.60;;;22.20;54.50;;;;;;5069291;28;20459;-73
2021/03/28 11:29:49;;;;;;;3.40;2.30;;;21.80;54.30;;;;;;4999903;28;20972;-73
2021/03/28 11:32:23;;;;;;;4.40;2.50;;;22.10;53.80;;;;;;5067562;28;20550;-73
2021/03/28 11:35:18;;;;;;;4.93;2.53;;;21.90;53.80;;;;;;5069363;28;20454;-73
2021/03/28 11:37:48;;;;;;;3.00;1.77;;;22.30;52.80;;;;;;5065583;28;20551;-72
2021/03/28 11:40:31;;;;;;;4.50;2.50;;;21.40;53.90;;;;;;5068625;28;20450;-72
2021/03/28 11:43:34;;;;;;;4.00;2.50;;;20.60;55.20;;;;;;5069324;28;20478;-72
2021/03/28 11:46:25;;;;;;;4.00;2.30;;;20.90;57.60;;;;;;5065038;28;21306;-72
2021/03/28 11:49:08;;;;;;;2.53;1.80;;;21.90;54.10;;;;;;5064752;28;20465;-71
2021/03/28 11:52:01;;;;;;;5.57;2.07;;;23.00;53.10;;;;;;5065924;28;20509;-71
2021/03/28 11:54:58;;;;;;;6.60;2.53;;;23.60;51.30;;;;;;5065967;28;20455;-71
2021/03/28 11:57:30;;;;;;;5.60;2.10;;;23.20;50.90;;;;;;5069998;28;20469;-71
2021/03/28 12:00:11;;;;;;;3.67;2.40;;;21.50;54.10;;;;;;5070132;28;20458;-72
2021/03/28 12:02:37;;;;;;;4.33;2.27;;;21.70;54.10;;;;;;5065555;28;20486;-72
2021/03/28 12:05:48;;;;;;;5.37;2.13;;;21.90;53.80;;;;;;5068391;28;20462;-72
2021/03/28 12:08:17;;;;;;;3.17;2.00;;;22.50;54.00;;;;;;5065865;28;20976;-71
2021/03/28 12:10:43;;;;;;;3.37;1.70;;;22.70;54.00;;;;;;5074584;28;20474;-72
2021/03/28 12:13:35;;;;;;;2.93;1.90;;;23.80;53.00;;;;;;5075776;28;20789;-71
2021/03/28 12:16:05;;;;;;;4.50;2.17;;;24.30;52.40;;;;;;5068135;28;20681;-71
2021/03/28 12:18:51;;;;;;;4.73;2.07;;;24.60;51.70;;;;;;5068348;28;20519;-71
2021/03/28 12:21:33;;;;;;;3.60;2.47;;;25.20;49.50;;;;;;5064909;28;20482;-71
2021/03/28 12:24:03;;;;;;;4.57;2.30;;;23.50;51.30;;;;;;5067806;28;21192;-72
2021/03/28 12:26:47;;;;;;;3.20;1.80;;;23.40;51.60;;;;;;5067105;28;20536;-71
2021/03/28 12:29:32;;;;;;;2.83;1.90;;;23.80;51.40;;;;;;5064456;28;20482;-72
2021/03/28 12:32:00;;;;;;;3.10;2.50;;;24.30;50.60;;;;;;5064319;28;20489;-72
2021/03/28 12:34:30;;;;;;;3.30;1.93;;;24.50;49.50;;;;;;5068239;28;20972;-71
2021/03/28 12:37:02;;;;;;;5.77;2.10;;;23.00;51.50;;;;;;5064894;28;20459;-72
2021/03/28 12:39:31;;;;;;;3.07;2.23;;;22.40;51.80;;;;;;5065320;28;20762;-72
2021/03/28 12:42:24;;;;;;;3.13;1.80;;;22.90;52.00;;;;;;5064274;28;20948;-72
2021/03/28 12:44:52;;;;;;;2.87;1.67;;;23.50;51.20;;;;;;5064149;28;20462;-72
2021/03/28 12:47:24;;;;;;;9.83;2.30;;;23.30;51.00;;;;;;5064730;28;20807;-72
2021/03/28 12:49:54;;;;;;;4.47;2.10;;;23.50;51.20;;;;;;5066616;28;20474;-71
2021/03/28 12:52:49;;;;;;;2.70;1.97;;;24.20;52.10;;;;;;5063557;28;20478;-71
2021/03/28 12:55:33;;;;;;;2.87;2.00;;;24.60;51.80;;;;;;5064039;28;20464;-70
2021/03/28 12:58:19;;;;;;;3.10;2.07;;;24.30;50.20;;;;;;5064001;28;20458;-73
2021/03/28 13:00:56;;;;;;;4.50;2.10;;;23.50;51.00;;;;;;5065098;28;20483;-72
2021/03/28 13:03:30;;;;;;;4.47;2.10;;;23.80;51.20;;;;;;5067959;28;20520;-72
2021/03/28 13:06:20;;;;;;;3.87;2.70;;;24.10;52.40;;;;;;5070407;28;21034;-72
2021/03/28 13:08:51;;;;;;;6.07;2.63;;;24.40;53.30;;;;;;5063190;28;20462;-72
2021/03/28 13:11:35;;;;;;;2.83;1.80;;;23.90;50.90;;;;;;5064535;28;20474;-72
2021/03/28 13:14:02;;;;;;;2.63;2.20;;;23.00;50.40;;;;;;5063686;28;20470;-72
2021/03/28 13:16:31;;;;;;;3.70;2.27;;;21.60;52.20;;;;;;5063446;28;20466;-72
2021/03/28 13:18:59;;;;;;;3.83;1.80;;;21.00;53.00;;;;;;5062985;28;20462;-72
2021/03/28 13:21:28;;;;;;;3.83;1.90;;;20.80;53.20;;;;;;5065760;28;20478;-73
2021/03/28 13:24:06;;;;;;;2.90;2.00;;;21.20;53.00;;;;;;5063061;28;20490;-72
2021/03/28 13:26:33;;;;;;;4.10;2.03;;;21.50;53.20;;;;;;5063359;28;20488;-73
2021/03/28 13:29:07;;;;;;;5.60;2.10;;;21.70;53.10;;;;;;5062584;28;20462;-73
2021/03/28 13:31:45;;;;;;;3.77;2.00;;;22.00;53.00;;;;;;5064537;28;20481;-73
2021/03/28 13:34:26;;;;;;;4.40;2.00;;;22.70;54.20;;;;;;5066548;28;20460;-73
2021/03/28 13:37:06;;;;;;;4.00;1.90;;;23.50;53.80;;;;;;5063328;28;20487;-72
2021/03/28 13:39:35;;;;;;;5.17;2.00;;;24.00;52.40;;;;;;5063054;28;20458;-73
2021/03/28 13:42:06;;;;;;;2.90;1.87;;;23.80;50.20;;;;;;5065652;28;20483;-72
2021/03/28 13:44:48;;;;;;;5.07;2.70;;;23.20;50.40;;;;;;5059096;28;20462;-73
2021/03/28 13:47:15;;;;;;;4.07;2.17;;;21.90;50.90;;;;;;5060671;28;20464;-70
2021/03/28 13:49:46;;;;;;;2.73;1.70;;;20.60;52.60;;;;;;5066556;28;20489;-71
2021/03/28 13:52:20;;;;;;;5.40;2.07;;;19.50;53.80;;;;;;5063096;28;20508;-71
2021/03/28 13:55:01;;;;;;;2.63;1.63;;;19.50;54.80;;;;;;5059702;28;20472;-72
2021/03/28 13:57:32;;;;;;;4.17;1.93;;;20.30;54.10;;;;;;5067295;28;21222;-72
2021/03/28 14:00:10;;;;;;;2.73;1.70;;;20.20;53.60;;;;;;5069201;28;21157;-71
2021/03/28 14:02:39;;;;;;;3.63;2.10;;;20.30;54.40;;;;;;5062921;28;20536;-70
2021/03/28 14:05:10;;;;;;;2.50;1.87;;;21.10;54.20;;;;;;5063984;28;20591;-71
2021/03/28 14:07:47;;;;;;;3.60;2.17;;;21.70;53.90;;;;;;5064946;28;20489;-71
2021/03/28 14:10:21;;;;;;;3.63;2.10;;;22.00;53.20;;;;;;5065518;28;20462;-71
2021/03/28 14:12:53;;;;;;;3.23;1.97;;;22.40;52.40;;;;;;5061796;28;20518;-71
2021/03/28 14:15:31;;;;;;;3.80;2.10;;;22.00;52.50;;;;;;5063034;28;20462;-69
2021/03/28 14:18:01;;;;;;;3.70;1.90;;;21.90;52.50;;;;;;5065818;28;20458;-71
2021/03/28 14:20:32;;;;;;;2.40;2.00;;;21.60;52.10;;;;;;5063281;28;20478;-72
2021/03/28 14:23:13;;;;;;;4.93;2.17;;;21.10;52.10;;;;;;5063111;28;20494;-72
2021/03/28 14:25:42;;;;;;;3.30;1.80;;;20.30;52.60;;;;;;5062965;28;20467;-71
2021/03/28 14:28:44;;;;;;;5.57;3.20;;;19.90;53.60;;;;;;5063407;28;20458;-71
2021/03/28 14:31:28;;;;;;;2.40;1.97;;;20.10;54.10;;;;;;5067026;28;20481;-72
2021/03/28 14:34:27;;;;;;;2.57;1.80;;;20.00;53.90;;;;;;5064254;28;20485;-71
2021/03/28 14:37:46;;;;;;;2.53;1.83;;;19.90;54.40;;;;;;5034142;28;20462;-72
2021/03/28 14:40:31;;;;;;;2.20;1.70;;;20.10;53.90;;;;;;5067803;28;20531;-72
2021/03/28 14:43:15;;;;;;;4.47;2.27;;;19.70;54.30;;;;;;5063898;28;20478;-72
2021/03/28 14:45:55;;;;;;;2.73;1.90;;;19.00;54.90;;;;;;5070585;28;20457;-72
2021/03/28 14:48:31;;;;;;;3.20;2.20;;;18.60;55.30;;;;;;5071209;28;20902;-71